UAL23 KEWR-EIDW
Flight info
| Callsign | UAL23 |
|---|---|
| Flight time | 5h 46m |
| Altitude | 35000 |
| Route | MERIT DCT HFD DCT PUT DCT BOS DCT ALLEX N357C JOOPY/M083F370 DCT 49N050W 52N040W 54N030W 55N020W DCT RESNO/N0474F370 DCT NETKI DCT REVNU DCT OLAPO |
| Aircraft | B772/H-SDE2E3FGHIJ5LORVWXY/LB1D1 |
Departure
| Time | 2026-05-04 22:53 |
|---|---|
| Airport | Newark Liberty International Airport (KEWR) |
Arrival
| Time | 2026-05-05 04:40 |
|---|---|
| Airport | Dublin Airport (EIDW) |
| Time | Latitude | Longitude | Altitude | Speed | Heading |
|---|---|---|---|---|---|
| 2026-05-04 20:29 | 40.69924 | -74.17954 | 26 ft | 0 kts | 185° |
| 2026-05-04 22:44 | 40.69937 | -74.17952 | 26 ft | 3 kts | 185° |
| 2026-05-04 22:44 | 40.69952 | -74.17949 | 25 ft | 3 kts | 217° |
| 2026-05-04 22:44 | 40.69965 | -74.17934 | 25 ft | 2 kts | 216° |
| 2026-05-04 22:45 | 40.69974 | -74.17925 | 24 ft | 3 kts | 207° |
| 2026-05-04 22:45 | 40.69992 | -74.17920 | 24 ft | 3 kts | 121° |
| 2026-05-04 22:45 | 40.69996 | -74.17933 | 24 ft | 1 kts | 95° |
| 2026-05-04 22:46 | 40.69997 | -74.17952 | 23 ft | 3 kts | 95° |
| 2026-05-04 22:46 | 40.69999 | -74.17972 | 23 ft | 1 kts | 95° |
| 2026-05-04 22:46 | 40.69999 | -74.17974 | 23 ft | 0 kts | 95° |
| 2026-05-04 22:49 | 40.69995 | -74.17922 | 25 ft | 12 kts | 95° |
| 2026-05-04 22:49 | 40.69988 | -74.17812 | 26 ft | 12 kts | 95° |
| 2026-05-04 22:49 | 40.69982 | -74.17715 | 26 ft | 9 kts | 89° |
| 2026-05-04 22:49 | 40.70015 | -74.17678 | 26 ft | 7 kts | 9° |
| 2026-05-04 22:50 | 40.70087 | -74.17665 | 26 ft | 12 kts | 5° |
| 2026-05-04 22:50 | 40.70136 | -74.17628 | 26 ft | 7 kts | 69° |
| 2026-05-04 22:50 | 40.70132 | -74.17468 | 27 ft | 25 kts | 95° |
| 2026-05-04 22:50 | 40.70117 | -74.17251 | 27 ft | 22 kts | 95° |
| 2026-05-04 22:51 | 40.70105 | -74.17067 | 26 ft | 20 kts | 95° |
| 2026-05-04 22:51 | 40.70094 | -74.16888 | 26 ft | 20 kts | 95° |
| 2026-05-04 22:51 | 40.70081 | -74.16707 | 27 ft | 20 kts | 95° |
| 2026-05-04 22:51 | 40.70070 | -74.16550 | 29 ft | 20 kts | 95° |
| 2026-05-04 22:52 | 40.70061 | -74.16408 | 26 ft | 10 kts | 96° |
| 2026-05-04 22:52 | 40.70030 | -74.16366 | 25 ft | 7 kts | 173° |
| 2026-05-04 22:52 | 40.69948 | -74.16413 | 27 ft | 26 kts | 206° |
| 2026-05-04 22:52 | 40.69547 | -74.16669 | 28 ft | 103 kts | 206° |
| 2026-05-04 22:53 | 40.68684 | -74.17220 | 31 ft | 170 kts | 205° |
| 2026-05-04 22:53 | 40.67541 | -74.17913 | 679 ft | 179 kts | 204° |
| 2026-05-04 22:53 | 40.66254 | -74.18154 | 1437 ft | 196 kts | 180° |
| 2026-05-04 22:53 | 40.64818 | -74.18093 | 1715 ft | 215 kts | 190° |
| 2026-05-04 22:54 | 40.63364 | -74.18674 | 1893 ft | 226 kts | 207° |
| 2026-05-04 22:54 | 40.62064 | -74.19822 | 2285 ft | 227 kts | 234° |
| 2026-05-04 22:54 | 40.61388 | -74.21723 | 2589 ft | 235 kts | 264° |
| 2026-05-04 22:54 | 40.61606 | -74.23834 | 3247 ft | 235 kts | 295° |
| 2026-05-04 22:55 | 40.62629 | -74.25515 | 3811 ft | 243 kts | 323° |
| 2026-05-04 22:55 | 40.64225 | -74.26321 | 4414 ft | 253 kts | 351° |
| 2026-05-04 22:55 | 40.65975 | -74.25986 | 5110 ft | 262 kts | 17° |
| 2026-05-04 22:55 | 40.67621 | -74.24863 | 5662 ft | 269 kts | 25° |
| 2026-05-04 22:56 | 40.69189 | -74.23580 | 6020 ft | 272 kts | 27° |
| 2026-05-04 22:56 | 40.70719 | -74.22026 | 6001 ft | 278 kts | 45° |
| 2026-05-04 22:56 | 40.71623 | -74.19734 | 6352 ft | 287 kts | 70° |
| 2026-05-04 22:56 | 40.72051 | -74.17170 | 6817 ft | 294 kts | 76° |
| 2026-05-04 22:57 | 40.72390 | -74.14460 | 7361 ft | 296 kts | 77° |
| 2026-05-04 22:57 | 40.72693 | -74.11767 | 7921 ft | 298 kts | 77° |
| 2026-05-04 22:57 | 40.72979 | -74.09072 | 8429 ft | 301 kts | 77° |
| 2026-05-04 22:57 | 40.73255 | -74.06327 | 8969 ft | 303 kts | 77° |
| 2026-05-04 22:58 | 40.73519 | -74.03546 | 9400 ft | 306 kts | 77° |
| 2026-05-04 22:58 | 40.73759 | -74.00882 | 9870 ft | 307 kts | 77° |
| 2026-05-04 22:58 | 40.74005 | -73.98055 | 10039 ft | 313 kts | 77° |
| 2026-05-04 22:58 | 40.74258 | -73.95166 | 10309 ft | 325 kts | 77° |
| 2026-05-04 22:59 | 40.74609 | -73.92146 | 10412 ft | 338 kts | 67° |
| 2026-05-04 22:59 | 40.75591 | -73.89297 | 10573 ft | 348 kts | 50° |
| 2026-05-04 22:59 | 40.77086 | -73.86973 | 10776 ft | 357 kts | 37° |
| 2026-05-04 22:59 | 40.78950 | -73.84744 | 11242 ft | 366 kts | 35° |
| 2026-05-04 23:00 | 40.80892 | -73.82505 | 11901 ft | 373 kts | 35° |
| 2026-05-04 23:00 | 40.82855 | -73.80245 | 12628 ft | 377 kts | 36° |
| 2026-05-04 23:00 | 40.84840 | -73.77941 | 13352 ft | 382 kts | 36° |
| 2026-05-04 23:00 | 40.86839 | -73.75599 | 13989 ft | 387 kts | 37° |
| 2026-05-04 23:01 | 40.88852 | -73.73221 | 14676 ft | 388 kts | 37° |
| 2026-05-04 23:01 | 40.90868 | -73.70825 | 15276 ft | 393 kts | 36° |
| 2026-05-04 23:01 | 40.92913 | -73.68388 | 15767 ft | 399 kts | 37° |
| 2026-05-04 23:01 | 40.94985 | -73.65913 | 16289 ft | 404 kts | 36° |
| 2026-05-04 23:02 | 40.96371 | -73.64256 | 16658 ft | 407 kts | 37° |
| 2026-05-04 23:02 | 40.99166 | -73.60906 | 17012 ft | 412 kts | 37° |
| 2026-05-04 23:02 | 41.01285 | -73.58361 | 17004 ft | 410 kts | 37° |
| 2026-05-04 23:02 | 41.03395 | -73.55823 | 17000 ft | 409 kts | 36° |
| 2026-05-04 23:03 | 41.04817 | -73.54112 | 16996 ft | 411 kts | 37° |
| 2026-05-04 23:03 | 41.06949 | -73.51551 | 17445 ft | 415 kts | 36° |
| 2026-05-04 23:03 | 41.09091 | -73.48974 | 18092 ft | 416 kts | 36° |
| 2026-05-04 23:03 | 41.11244 | -73.46381 | 18594 ft | 419 kts | 36° |
| 2026-05-04 23:04 | 41.13382 | -73.43805 | 19036 ft | 423 kts | 36° |
| 2026-05-04 23:04 | 41.15597 | -73.41133 | 19475 ft | 426 kts | 36° |
| 2026-05-04 23:04 | 41.17773 | -73.38505 | 19911 ft | 429 kts | 36° |
| 2026-05-04 23:04 | 41.19988 | -73.35826 | 20382 ft | 431 kts | 37° |
| 2026-05-04 23:05 | 41.22213 | -73.33133 | 20803 ft | 435 kts | 37° |
| 2026-05-04 23:05 | 41.24459 | -73.30412 | 21198 ft | 439 kts | 37° |
| 2026-05-04 23:05 | 41.26721 | -73.27670 | 21627 ft | 442 kts | 37° |
| 2026-05-04 23:05 | 41.28996 | -73.24905 | 22048 ft | 444 kts | 37° |
| 2026-05-04 23:06 | 41.31288 | -73.22120 | 22474 ft | 447 kts | 37° |
| 2026-05-04 23:06 | 41.33594 | -73.19316 | 22892 ft | 450 kts | 37° |
| 2026-05-04 23:06 | 41.35901 | -73.16479 | 23296 ft | 454 kts | 39° |
| 2026-05-04 23:06 | 41.38053 | -73.13339 | 23659 ft | 462 kts | 45° |
| 2026-05-04 23:07 | 41.39980 | -73.09880 | 23987 ft | 468 kts | 52° |
| 2026-05-04 23:07 | 41.41652 | -73.06190 | 24335 ft | 472 kts | 55° |
| 2026-05-04 23:07 | 41.43320 | -73.02345 | 24670 ft | 475 kts | 55° |
| 2026-05-04 23:07 | 41.44966 | -72.98524 | 25014 ft | 477 kts | 55° |
| 2026-05-04 23:08 | 41.46630 | -72.94679 | 25333 ft | 479 kts | 55° |
| 2026-05-04 23:08 | 41.48287 | -72.90874 | 25650 ft | 482 kts | 55° |
| 2026-05-04 23:08 | 41.49984 | -72.86997 | 25967 ft | 484 kts | 55° |
| 2026-05-04 23:08 | 41.51688 | -72.83114 | 26274 ft | 487 kts | 55° |
| 2026-05-04 23:09 | 41.53403 | -72.79208 | 26587 ft | 489 kts | 55° |
| 2026-05-04 23:09 | 41.55124 | -72.75283 | 26882 ft | 491 kts | 55° |
| 2026-05-04 23:09 | 41.56856 | -72.71325 | 27163 ft | 494 kts | 55° |
| 2026-05-04 23:09 | 41.58589 | -72.67359 | 27451 ft | 497 kts | 55° |
| 2026-05-04 23:10 | 41.60337 | -72.63350 | 27706 ft | 499 kts | 55° |
| 2026-05-04 23:10 | 41.62085 | -72.59339 | 27978 ft | 501 kts | 55° |
| 2026-05-04 23:10 | 41.63846 | -72.55293 | 28243 ft | 503 kts | 55° |
| 2026-05-04 23:10 | 41.65623 | -72.51254 | 28490 ft | 505 kts | 54° |
| 2026-05-04 23:11 | 41.67434 | -72.47225 | 28702 ft | 507 kts | 54° |
| 2026-05-04 23:11 | 41.69270 | -72.43177 | 28946 ft | 509 kts | 54° |
| 2026-05-04 23:11 | 41.71114 | -72.39114 | 29187 ft | 511 kts | 54° |
| 2026-05-04 23:11 | 41.72959 | -72.35034 | 29397 ft | 514 kts | 54° |
| 2026-05-04 23:12 | 41.74803 | -72.30937 | 29601 ft | 515 kts | 54° |
| 2026-05-04 23:12 | 41.76655 | -72.26809 | 29812 ft | 517 kts | 54° |
| 2026-05-04 23:12 | 41.78505 | -72.22672 | 30047 ft | 517 kts | 54° |
| 2026-05-04 23:12 | 41.80326 | -72.18590 | 30271 ft | 517 kts | 54° |
| 2026-05-04 23:13 | 41.82169 | -72.14456 | 30527 ft | 516 kts | 55° |
| 2026-05-04 23:13 | 41.84008 | -72.10326 | 30782 ft | 516 kts | 55° |
| 2026-05-04 23:13 | 41.85849 | -72.06187 | 31011 ft | 516 kts | 55° |
| 2026-05-04 23:13 | 41.87688 | -72.02049 | 31239 ft | 516 kts | 55° |
| 2026-05-04 23:14 | 41.89523 | -71.97915 | 31476 ft | 515 kts | 55° |
| 2026-05-04 23:14 | 41.91354 | -71.93782 | 31746 ft | 514 kts | 55° |
| 2026-05-04 23:14 | 41.93178 | -71.89660 | 31989 ft | 514 kts | 55° |
| 2026-05-04 23:14 | 41.95006 | -71.85523 | 32237 ft | 514 kts | 56° |
| 2026-05-04 23:15 | 41.96845 | -71.81418 | 32459 ft | 513 kts | 54° |
| 2026-05-04 23:15 | 41.98747 | -71.77370 | 32720 ft | 512 kts | 53° |
| 2026-05-04 23:15 | 41.99702 | -71.75381 | 32849 ft | 511 kts | 53° |
| 2026-05-04 23:16 | 42.01640 | -71.71373 | 33085 ft | 511 kts | 53° |
| 2026-05-04 23:16 | 42.03577 | -71.67368 | 33352 ft | 510 kts | 53° |
| 2026-05-04 23:16 | 42.05507 | -71.63352 | 33580 ft | 510 kts | 53° |
| 2026-05-04 23:16 | 42.07422 | -71.59337 | 33800 ft | 511 kts | 54° |
| 2026-05-04 23:17 | 42.09335 | -71.55305 | 33992 ft | 510 kts | 54° |
| 2026-05-04 23:17 | 42.11240 | -71.51271 | 34163 ft | 511 kts | 54° |
| 2026-05-04 23:17 | 42.13126 | -71.47270 | 34308 ft | 512 kts | 54° |
| 2026-05-04 23:17 | 42.15034 | -71.43218 | 34428 ft | 513 kts | 54° |
| 2026-05-04 23:18 | 42.16944 | -71.39157 | 34583 ft | 513 kts | 54° |
| 2026-05-04 23:18 | 42.18853 | -71.35093 | 34755 ft | 513 kts | 54° |
| 2026-05-04 23:18 | 42.22673 | -71.26949 | 34891 ft | 517 kts | 54° |
| 2026-05-04 23:19 | 42.26516 | -71.18731 | 34861 ft | 515 kts | 54° |
| 2026-05-04 23:19 | 42.30325 | -71.10563 | 34832 ft | 513 kts | 54° |
| 2026-05-04 23:20 | 42.34119 | -71.02409 | 34832 ft | 510 kts | 54° |
| 2026-05-04 23:20 | 42.38053 | -70.94548 | 34841 ft | 506 kts | 50° |
| 2026-05-04 23:21 | 42.42275 | -70.86924 | 34835 ft | 505 kts | 49° |
| 2026-05-04 23:21 | 42.46497 | -70.79339 | 34821 ft | 505 kts | 49° |
| 2026-05-04 23:22 | 42.50700 | -70.71709 | 34821 ft | 505 kts | 50° |
| 2026-05-04 23:22 | 42.54882 | -70.64055 | 34825 ft | 505 kts | 50° |
| 2026-05-04 23:23 | 42.59061 | -70.56375 | 34829 ft | 506 kts | 50° |
| 2026-05-04 23:23 | 42.63237 | -70.48686 | 34840 ft | 506 kts | 50° |
| 2026-05-04 23:24 | 42.67387 | -70.41026 | 34843 ft | 506 kts | 50° |
| 2026-05-04 23:24 | 42.71563 | -70.33302 | 34848 ft | 506 kts | 50° |
| 2026-05-04 23:25 | 42.75726 | -70.25580 | 34850 ft | 506 kts | 50° |
| 2026-05-04 23:25 | 42.79886 | -70.17842 | 34852 ft | 506 kts | 50° |
| 2026-05-04 23:26 | 42.84045 | -70.10089 | 34852 ft | 506 kts | 50° |
| 2026-05-04 23:26 | 42.88193 | -70.02335 | 34864 ft | 506 kts | 50° |
| 2026-05-04 23:27 | 42.92336 | -69.94569 | 34861 ft | 506 kts | 50° |
| 2026-05-04 23:27 | 42.96472 | -69.86796 | 34858 ft | 506 kts | 50° |
| 2026-05-04 23:28 | 43.00605 | -69.79010 | 34859 ft | 506 kts | 50° |
| 2026-05-04 23:28 | 43.04723 | -69.71231 | 34861 ft | 506 kts | 50° |
| 2026-05-04 23:29 | 43.08843 | -69.63428 | 34857 ft | 505 kts | 50° |
| 2026-05-04 23:29 | 43.12934 | -69.55659 | 34854 ft | 505 kts | 50° |
| 2026-05-04 23:30 | 43.14973 | -69.51771 | 34711 ft | 496 kts | 48° |
| 2026-05-04 23:30 | 43.16951 | -69.47986 | 34782 ft | 484 kts | 48° |
| 2026-05-04 23:30 | 43.20875 | -69.40496 | 34850 ft | 485 kts | 48° |
| 2026-05-04 23:31 | 43.24834 | -69.32941 | 34862 ft | 490 kts | 48° |
| 2026-05-04 23:31 | 43.28819 | -69.25306 | 34863 ft | 494 kts | 49° |
| 2026-05-04 23:32 | 43.32821 | -69.17607 | 34857 ft | 496 kts | 49° |
| 2026-05-04 23:32 | 43.36829 | -69.09873 | 34858 ft | 497 kts | 49° |
| 2026-05-04 23:33 | 43.40813 | -69.02165 | 34857 ft | 497 kts | 49° |
| 2026-05-04 23:33 | 43.44832 | -68.94371 | 34848 ft | 496 kts | 49° |
| 2026-05-04 23:34 | 43.48793 | -68.86671 | 34849 ft | 495 kts | 49° |
| 2026-05-04 23:34 | 43.52773 | -68.78914 | 34852 ft | 495 kts | 49° |
| 2026-05-04 23:35 | 43.56741 | -68.71161 | 34838 ft | 494 kts | 49° |
| 2026-05-04 23:35 | 43.60696 | -68.63413 | 34839 ft | 494 kts | 49° |
| 2026-05-04 23:36 | 43.64655 | -68.55636 | 34844 ft | 495 kts | 49° |
| 2026-05-04 23:36 | 43.68615 | -68.47837 | 34851 ft | 496 kts | 49° |
| 2026-05-04 23:37 | 43.72577 | -68.40012 | 34854 ft | 497 kts | 49° |
| 2026-05-04 23:37 | 43.76523 | -68.32200 | 34851 ft | 499 kts | 49° |
| 2026-05-04 23:38 | 43.80500 | -68.24303 | 34853 ft | 500 kts | 50° |
| 2026-05-04 23:38 | 43.84481 | -68.16378 | 34855 ft | 502 kts | 50° |
| 2026-05-04 23:39 | 43.88471 | -68.08411 | 34851 ft | 503 kts | 50° |
| 2026-05-04 23:39 | 43.92459 | -68.00427 | 34855 ft | 504 kts | 50° |
| 2026-05-04 23:40 | 43.96455 | -67.92406 | 34850 ft | 506 kts | 50° |
| 2026-05-04 23:40 | 44.00425 | -67.84414 | 34849 ft | 506 kts | 50° |
| 2026-05-04 23:41 | 44.04427 | -67.76338 | 34846 ft | 507 kts | 50° |
| 2026-05-04 23:41 | 44.08432 | -67.68231 | 34847 ft | 508 kts | 50° |
| 2026-05-04 23:42 | 44.12438 | -67.60102 | 34847 ft | 509 kts | 50° |
| 2026-05-04 23:42 | 44.16443 | -67.51949 | 34849 ft | 511 kts | 51° |
| 2026-05-04 23:43 | 44.20451 | -67.43768 | 34848 ft | 512 kts | 51° |
| 2026-05-04 23:43 | 44.24468 | -67.35547 | 34846 ft | 513 kts | 51° |
| 2026-05-04 23:44 | 44.28487 | -67.27296 | 34845 ft | 514 kts | 51° |
| 2026-05-04 23:44 | 44.32504 | -67.19025 | 34849 ft | 515 kts | 51° |
| 2026-05-04 23:45 | 44.36528 | -67.10717 | 34838 ft | 517 kts | 51° |
| 2026-05-04 23:45 | 44.40527 | -67.02439 | 34840 ft | 518 kts | 52° |
| 2026-05-04 23:46 | 44.44131 | -66.93659 | 34844 ft | 523 kts | 59° |
| 2026-05-04 23:46 | 44.47376 | -66.84534 | 34836 ft | 525 kts | 60° |
| 2026-05-04 23:47 | 44.50608 | -66.75362 | 34826 ft | 526 kts | 60° |
| 2026-05-04 23:47 | 44.53875 | -66.66177 | 34818 ft | 527 kts | 60° |
| 2026-05-04 23:48 | 44.56603 | -66.58544 | 34816 ft | 527 kts | 60° |
| 2026-05-04 23:48 | 44.59910 | -66.49275 | 34810 ft | 528 kts | 60° |
| 2026-05-04 23:49 | 44.63192 | -66.40041 | 34802 ft | 529 kts | 60° |
| 2026-05-04 23:49 | 44.66449 | -66.30838 | 34814 ft | 530 kts | 60° |
| 2026-05-04 23:50 | 44.69726 | -66.21547 | 34824 ft | 531 kts | 60° |
| 2026-05-04 23:50 | 44.72999 | -66.12234 | 34821 ft | 532 kts | 60° |
| 2026-05-04 23:51 | 44.76277 | -66.02873 | 34823 ft | 533 kts | 60° |
| 2026-05-04 23:51 | 44.79553 | -65.93489 | 34827 ft | 535 kts | 61° |
| 2026-05-04 23:52 | 44.82831 | -65.84064 | 34829 ft | 536 kts | 61° |
| 2026-05-04 23:52 | 44.86089 | -65.74665 | 34825 ft | 537 kts | 61° |
| 2026-05-04 23:53 | 44.89359 | -65.65198 | 34822 ft | 538 kts | 61° |
| 2026-05-04 23:53 | 44.92630 | -65.55694 | 34818 ft | 539 kts | 61° |
| 2026-05-04 23:54 | 44.95895 | -65.46172 | 34813 ft | 539 kts | 61° |
| 2026-05-04 23:54 | 44.99158 | -65.36623 | 34806 ft | 539 kts | 61° |
| 2026-05-04 23:55 | 45.02415 | -65.27058 | 34799 ft | 540 kts | 62° |
| 2026-05-04 23:56 | 45.07283 | -65.12697 | 34796 ft | 539 kts | 62° |
| 2026-05-04 23:56 | 45.10494 | -65.03182 | 34797 ft | 539 kts | 62° |
| 2026-05-04 23:57 | 45.13722 | -64.93579 | 34793 ft | 539 kts | 62° |
| 2026-05-04 23:57 | 45.16942 | -64.83970 | 34794 ft | 539 kts | 62° |
| 2026-05-04 23:58 | 45.20152 | -64.74352 | 34789 ft | 539 kts | 62° |
| 2026-05-04 23:58 | 45.23354 | -64.64725 | 34783 ft | 539 kts | 62° |
| 2026-05-04 23:59 | 45.26529 | -64.55145 | 34774 ft | 539 kts | 62° |
| 2026-05-04 23:59 | 45.29712 | -64.45506 | 34771 ft | 539 kts | 62° |
| 2026-05-05 00:00 | 45.32887 | -64.35853 | 34768 ft | 539 kts | 62° |
| 2026-05-05 00:00 | 45.36055 | -64.26188 | 34755 ft | 539 kts | 63° |
| 2026-05-05 00:01 | 45.39215 | -64.16510 | 34760 ft | 539 kts | 63° |
| 2026-05-05 00:01 | 45.42368 | -64.06820 | 34761 ft | 539 kts | 63° |
| 2026-05-05 00:02 | 45.45498 | -63.97164 | 34768 ft | 539 kts | 63° |
| 2026-05-05 00:02 | 45.48631 | -63.87460 | 34771 ft | 540 kts | 63° |
| 2026-05-05 00:03 | 45.51762 | -63.77729 | 34749 ft | 540 kts | 63° |
| 2026-05-05 00:03 | 45.54883 | -63.67992 | 34758 ft | 539 kts | 63° |
| 2026-05-05 00:04 | 45.57993 | -63.58251 | 34755 ft | 539 kts | 63° |
| 2026-05-05 00:04 | 45.61091 | -63.48513 | 34756 ft | 538 kts | 63° |
| 2026-05-05 00:05 | 45.64179 | -63.38767 | 34755 ft | 538 kts | 63° |
| 2026-05-05 00:05 | 45.67258 | -63.29016 | 34756 ft | 537 kts | 64° |
| 2026-05-05 00:06 | 45.70323 | -63.19270 | 34757 ft | 537 kts | 64° |
| 2026-05-05 00:06 | 45.73357 | -63.09587 | 34759 ft | 536 kts | 64° |
| 2026-05-05 00:07 | 45.76396 | -62.99850 | 34753 ft | 536 kts | 64° |
| 2026-05-05 00:07 | 45.79428 | -62.90101 | 34746 ft | 535 kts | 64° |
| 2026-05-05 00:08 | 45.82447 | -62.80353 | 34739 ft | 535 kts | 64° |
| 2026-05-05 00:08 | 45.85458 | -62.70598 | 34732 ft | 535 kts | 65° |
| 2026-05-05 00:09 | 45.88462 | -62.60825 | 34730 ft | 535 kts | 65° |
| 2026-05-05 00:09 | 45.91460 | -62.51033 | 34731 ft | 536 kts | 65° |
| 2026-05-05 00:10 | 45.94457 | -62.41207 | 34736 ft | 536 kts | 65° |
| 2026-05-05 00:10 | 45.97441 | -62.31386 | 34741 ft | 537 kts | 65° |
| 2026-05-05 00:11 | 46.00411 | -62.21575 | 34740 ft | 538 kts | 65° |
| 2026-05-05 00:11 | 46.03388 | -62.11697 | 34747 ft | 538 kts | 65° |
| 2026-05-05 00:12 | 46.06363 | -62.01791 | 34744 ft | 539 kts | 65° |
| 2026-05-05 00:12 | 46.09337 | -61.91848 | 34743 ft | 539 kts | 66° |
| 2026-05-05 00:13 | 46.12295 | -61.81918 | 34735 ft | 539 kts | 66° |
| 2026-05-05 00:13 | 46.15242 | -61.71986 | 34730 ft | 539 kts | 66° |
| 2026-05-05 00:14 | 46.18163 | -61.62101 | 34722 ft | 538 kts | 66° |
| 2026-05-05 00:14 | 46.21091 | -61.52156 | 34715 ft | 537 kts | 66° |
| 2026-05-05 00:15 | 46.24001 | -61.42228 | 34708 ft | 536 kts | 66° |
| 2026-05-05 00:15 | 46.26900 | -61.32300 | 34703 ft | 535 kts | 66° |
| 2026-05-05 00:16 | 46.29786 | -61.22379 | 34699 ft | 534 kts | 66° |
| 2026-05-05 00:16 | 46.32638 | -61.12532 | 34691 ft | 534 kts | 66° |
| 2026-05-05 00:17 | 46.35497 | -61.02624 | 34695 ft | 533 kts | 67° |
| 2026-05-05 00:17 | 46.38347 | -60.92706 | 34687 ft | 533 kts | 67° |
| 2026-05-05 00:18 | 46.41184 | -60.82791 | 34682 ft | 533 kts | 67° |
| 2026-05-05 00:18 | 46.44014 | -60.72863 | 34677 ft | 533 kts | 67° |
| 2026-05-05 00:19 | 46.46836 | -60.62921 | 34672 ft | 533 kts | 67° |
| 2026-05-05 00:19 | 46.49646 | -60.52979 | 34664 ft | 533 kts | 67° |
| 2026-05-05 00:20 | 46.52457 | -60.42997 | 34653 ft | 534 kts | 68° |
| 2026-05-05 00:20 | 46.55246 | -60.33051 | 34663 ft | 535 kts | 68° |
| 2026-05-05 00:21 | 46.58046 | -60.23021 | 34665 ft | 536 kts | 68° |
| 2026-05-05 00:21 | 46.60850 | -60.12937 | 34677 ft | 537 kts | 68° |
| 2026-05-05 00:22 | 46.63645 | -60.02841 | 34684 ft | 538 kts | 68° |
| 2026-05-05 00:22 | 46.66436 | -59.92722 | 34684 ft | 538 kts | 68° |
| 2026-05-05 00:23 | 46.69219 | -59.82584 | 34684 ft | 538 kts | 68° |
| 2026-05-05 00:23 | 46.71972 | -59.72513 | 34683 ft | 538 kts | 68° |
| 2026-05-05 00:24 | 46.74728 | -59.62392 | 34688 ft | 537 kts | 68° |
| 2026-05-05 00:24 | 46.77478 | -59.52246 | 34686 ft | 537 kts | 69° |
| 2026-05-05 00:25 | 46.80215 | -59.42107 | 34686 ft | 536 kts | 69° |
| 2026-05-05 00:25 | 46.82937 | -59.31976 | 34687 ft | 536 kts | 69° |
| 2026-05-05 00:26 | 46.85653 | -59.21830 | 34687 ft | 536 kts | 69° |
| 2026-05-05 00:26 | 46.88359 | -59.11674 | 34693 ft | 536 kts | 69° |
| 2026-05-05 00:27 | 46.91038 | -59.01575 | 34693 ft | 536 kts | 69° |
| 2026-05-05 00:27 | 46.93722 | -58.91416 | 34691 ft | 535 kts | 69° |
| 2026-05-05 00:28 | 46.96398 | -58.81239 | 34689 ft | 535 kts | 69° |
| 2026-05-05 00:28 | 46.99063 | -58.71063 | 34687 ft | 535 kts | 69° |
| 2026-05-05 00:29 | 47.01724 | -58.60856 | 34687 ft | 535 kts | 69° |
| 2026-05-05 00:29 | 47.04373 | -58.50651 | 34685 ft | 535 kts | 70° |
| 2026-05-05 00:30 | 47.07015 | -58.40429 | 34684 ft | 536 kts | 70° |
| 2026-05-05 00:30 | 47.09646 | -58.30200 | 34683 ft | 536 kts | 70° |
| 2026-05-05 00:31 | 47.12253 | -58.20022 | 34678 ft | 536 kts | 70° |
| 2026-05-05 00:31 | 47.14870 | -58.09762 | 34678 ft | 536 kts | 70° |
| 2026-05-05 00:32 | 47.17478 | -57.99488 | 34674 ft | 536 kts | 70° |
| 2026-05-05 00:32 | 47.20080 | -57.89189 | 34669 ft | 537 kts | 70° |
| 2026-05-05 00:33 | 47.22673 | -57.78883 | 34671 ft | 537 kts | 70° |
| 2026-05-05 00:33 | 47.25254 | -57.68575 | 34670 ft | 537 kts | 70° |
| 2026-05-05 00:34 | 47.27817 | -57.58297 | 34671 ft | 537 kts | 71° |
| 2026-05-05 00:34 | 47.30387 | -57.47938 | 34668 ft | 538 kts | 71° |
| 2026-05-05 00:35 | 47.32944 | -57.37585 | 34668 ft | 538 kts | 71° |
| 2026-05-05 00:35 | 47.35496 | -57.27205 | 34661 ft | 538 kts | 71° |
| 2026-05-05 00:36 | 47.38025 | -57.16874 | 34661 ft | 538 kts | 71° |
| 2026-05-05 00:36 | 47.40555 | -57.06488 | 34658 ft | 538 kts | 71° |
| 2026-05-05 00:37 | 47.42661 | -56.97802 | 34650 ft | 539 kts | 71° |
| 2026-05-05 00:37 | 47.45181 | -56.87372 | 34639 ft | 539 kts | 71° |
| 2026-05-05 00:38 | 47.47690 | -56.76933 | 34617 ft | 539 kts | 71° |
| 2026-05-05 00:38 | 47.50193 | -56.66471 | 34607 ft | 540 kts | 71° |
| 2026-05-05 00:39 | 47.52688 | -56.55992 | 34581 ft | 540 kts | 72° |
| 2026-05-05 00:39 | 47.55175 | -56.45493 | 34570 ft | 540 kts | 72° |
| 2026-05-05 00:40 | 47.57657 | -56.34969 | 34550 ft | 541 kts | 72° |
| 2026-05-05 00:40 | 47.60111 | -56.24513 | 34538 ft | 541 kts | 72° |
| 2026-05-05 00:41 | 47.62572 | -56.13978 | 34520 ft | 541 kts | 72° |
| 2026-05-05 00:41 | 47.65026 | -56.03419 | 34511 ft | 541 kts | 72° |
| 2026-05-05 00:42 | 47.67471 | -55.92847 | 34515 ft | 542 kts | 72° |
| 2026-05-05 00:42 | 47.69910 | -55.82246 | 34505 ft | 542 kts | 72° |
| 2026-05-05 00:43 | 47.72325 | -55.71707 | 34504 ft | 542 kts | 72° |
| 2026-05-05 00:43 | 47.74742 | -55.61098 | 34517 ft | 542 kts | 73° |
| 2026-05-05 00:44 | 47.77149 | -55.50482 | 34514 ft | 542 kts | 73° |
| 2026-05-05 00:44 | 47.79547 | -55.39856 | 34538 ft | 542 kts | 73° |
| 2026-05-05 00:45 | 47.81936 | -55.29211 | 34547 ft | 542 kts | 73° |
| 2026-05-05 00:45 | 47.84317 | -55.18552 | 34566 ft | 542 kts | 73° |
| 2026-05-05 00:46 | 47.86684 | -55.07899 | 34582 ft | 542 kts | 73° |
| 2026-05-05 00:46 | 47.89027 | -54.97303 | 34604 ft | 542 kts | 73° |
| 2026-05-05 00:47 | 47.91374 | -54.86636 | 34624 ft | 542 kts | 73° |
| 2026-05-05 00:47 | 47.93712 | -54.75950 | 34618 ft | 542 kts | 73° |
| 2026-05-05 00:48 | 47.96043 | -54.65247 | 34620 ft | 542 kts | 73° |
| 2026-05-05 00:48 | 47.98361 | -54.54546 | 34606 ft | 542 kts | 73° |
| 2026-05-05 00:49 | 48.00672 | -54.43821 | 34599 ft | 542 kts | 74° |
| 2026-05-05 00:49 | 48.02971 | -54.33094 | 34589 ft | 542 kts | 74° |
| 2026-05-05 00:50 | 48.05248 | -54.22416 | 34581 ft | 542 kts | 74° |
| 2026-05-05 00:50 | 48.07530 | -54.11659 | 34573 ft | 542 kts | 74° |
| 2026-05-05 00:51 | 48.09799 | -54.00906 | 34563 ft | 542 kts | 74° |
| 2026-05-05 00:51 | 48.12060 | -53.90134 | 34559 ft | 542 kts | 74° |
| 2026-05-05 00:52 | 48.14310 | -53.79356 | 34558 ft | 542 kts | 75° |
| 2026-05-05 00:52 | 48.16548 | -53.68578 | 34557 ft | 542 kts | 75° |
| 2026-05-05 00:53 | 48.18771 | -53.57812 | 34559 ft | 541 kts | 75° |
| 2026-05-05 00:53 | 48.20989 | -53.47016 | 34560 ft | 541 kts | 75° |
| 2026-05-05 00:54 | 48.23193 | -53.36233 | 34565 ft | 541 kts | 75° |
| 2026-05-05 00:54 | 48.25373 | -53.25504 | 34570 ft | 541 kts | 75° |
| 2026-05-05 00:55 | 48.27555 | -53.14704 | 34573 ft | 541 kts | 75° |
| 2026-05-05 00:55 | 48.29729 | -53.03889 | 34583 ft | 541 kts | 75° |
| 2026-05-05 00:56 | 48.31892 | -52.93068 | 34593 ft | 541 kts | 75° |
| 2026-05-05 00:56 | 48.34047 | -52.82225 | 34601 ft | 541 kts | 76° |
| 2026-05-05 00:57 | 48.36191 | -52.71375 | 34616 ft | 541 kts | 76° |
| 2026-05-05 00:57 | 48.38328 | -52.60505 | 34622 ft | 541 kts | 76° |
| 2026-05-05 00:58 | 48.40452 | -52.49637 | 34636 ft | 542 kts | 76° |
| 2026-05-05 00:58 | 48.42568 | -52.38750 | 34643 ft | 542 kts | 76° |
| 2026-05-05 00:59 | 48.44671 | -52.27867 | 34654 ft | 541 kts | 76° |
| 2026-05-05 00:59 | 48.46750 | -52.17043 | 34659 ft | 541 kts | 76° |
| 2026-05-05 01:00 | 48.48832 | -52.06151 | 34652 ft | 541 kts | 76° |
| 2026-05-05 01:00 | 48.51115 | -51.95347 | 34659 ft | 541 kts | 71° |
| 2026-05-05 01:01 | 48.53876 | -51.84780 | 34658 ft | 541 kts | 70° |
| 2026-05-05 01:01 | 48.56679 | -51.74213 | 34662 ft | 541 kts | 70° |
| 2026-05-05 01:02 | 48.59431 | -51.63641 | 34677 ft | 541 kts | 70° |
| 2026-05-05 01:02 | 48.62131 | -51.53115 | 34668 ft | 540 kts | 71° |
| 2026-05-05 01:03 | 48.64832 | -51.42515 | 34673 ft | 540 kts | 71° |
| 2026-05-05 01:03 | 48.67525 | -51.31910 | 34679 ft | 539 kts | 71° |
| 2026-05-05 01:04 | 48.70204 | -51.21317 | 34682 ft | 539 kts | 71° |
| 2026-05-05 01:04 | 48.74201 | -51.05426 | 34686 ft | 538 kts | 71° |
| 2026-05-05 01:05 | 48.76849 | -50.94833 | 34688 ft | 537 kts | 71° |
| 2026-05-05 01:05 | 48.79468 | -50.84305 | 34692 ft | 536 kts | 71° |
| 2026-05-05 01:06 | 48.82088 | -50.73725 | 34701 ft | 535 kts | 72° |
| 2026-05-05 01:06 | 48.84692 | -50.63161 | 34704 ft | 534 kts | 72° |
| 2026-05-05 01:07 | 48.87288 | -50.52577 | 34708 ft | 534 kts | 72° |
| 2026-05-05 01:07 | 48.89866 | -50.42016 | 34712 ft | 533 kts | 72° |
| 2026-05-05 01:08 | 48.92435 | -50.31443 | 34718 ft | 532 kts | 72° |
| 2026-05-05 01:08 | 48.94973 | -50.20943 | 34720 ft | 532 kts | 72° |
| 2026-05-05 01:09 | 48.97518 | -50.10369 | 34722 ft | 532 kts | 72° |
| 2026-05-05 01:09 | 49.00135 | -49.99826 | 34744 ft | 533 kts | 69° |
| 2026-05-05 01:10 | 49.03570 | -49.89766 | 34739 ft | 535 kts | 63° |
| 2026-05-05 01:10 | 49.07235 | -49.79881 | 34732 ft | 536 kts | 63° |
| 2026-05-05 01:11 | 49.10879 | -49.69969 | 34740 ft | 535 kts | 63° |
| 2026-05-05 01:11 | 49.14457 | -49.60064 | 34739 ft | 535 kts | 63° |
| 2026-05-05 01:12 | 49.18026 | -49.50089 | 34746 ft | 535 kts | 64° |
| 2026-05-05 01:12 | 49.21590 | -49.40087 | 34748 ft | 535 kts | 64° |
| 2026-05-05 01:13 | 49.25144 | -49.30083 | 34753 ft | 534 kts | 64° |
| 2026-05-05 01:13 | 49.28688 | -49.20077 | 34755 ft | 534 kts | 64° |
| 2026-05-05 01:14 | 49.32214 | -49.10081 | 34757 ft | 533 kts | 64° |
| 2026-05-05 01:14 | 49.35709 | -49.00135 | 34762 ft | 533 kts | 64° |
| 2026-05-05 01:15 | 49.39213 | -48.90124 | 34775 ft | 532 kts | 64° |
| 2026-05-05 01:15 | 49.42703 | -48.80114 | 34776 ft | 532 kts | 65° |
| 2026-05-05 01:16 | 49.46186 | -48.70088 | 34774 ft | 531 kts | 65° |
| 2026-05-05 01:16 | 49.49656 | -48.60057 | 34777 ft | 530 kts | 65° |
| 2026-05-05 01:17 | 49.53115 | -48.50019 | 34783 ft | 530 kts | 65° |
| 2026-05-05 01:17 | 49.56537 | -48.40049 | 34784 ft | 529 kts | 65° |
| 2026-05-05 01:18 | 49.59965 | -48.30024 | 34784 ft | 528 kts | 65° |
| 2026-05-05 01:18 | 49.63380 | -48.19996 | 34786 ft | 528 kts | 66° |
| 2026-05-05 01:19 | 49.66785 | -48.09958 | 34793 ft | 527 kts | 66° |
| 2026-05-05 01:19 | 49.70174 | -47.99929 | 34797 ft | 527 kts | 66° |
| 2026-05-05 01:20 | 49.73557 | -47.89877 | 34804 ft | 527 kts | 66° |
| 2026-05-05 01:20 | 49.76927 | -47.79821 | 34803 ft | 526 kts | 66° |
| 2026-05-05 01:21 | 49.80285 | -47.69766 | 34804 ft | 526 kts | 66° |
| 2026-05-05 01:21 | 49.83617 | -47.59747 | 34810 ft | 526 kts | 66° |
| 2026-05-05 01:22 | 49.86954 | -47.49674 | 34814 ft | 525 kts | 67° |
| 2026-05-05 01:22 | 49.90284 | -47.39580 | 34810 ft | 525 kts | 67° |
| 2026-05-05 01:23 | 49.93604 | -47.29477 | 34824 ft | 525 kts | 67° |
| 2026-05-05 01:23 | 49.96905 | -47.19391 | 34829 ft | 524 kts | 67° |
| 2026-05-05 01:24 | 50.00201 | -47.09281 | 34830 ft | 523 kts | 68° |
| 2026-05-05 01:24 | 50.03478 | -46.99186 | 34831 ft | 522 kts | 68° |
| 2026-05-05 01:25 | 50.06193 | -46.90792 | 34834 ft | 522 kts | 68° |
| 2026-05-05 01:25 | 50.09973 | -46.79059 | 34836 ft | 521 kts | 68° |
| 2026-05-05 01:26 | 50.12687 | -46.70598 | 34846 ft | 520 kts | 68° |
| 2026-05-05 01:26 | 50.15914 | -46.60503 | 34845 ft | 520 kts | 69° |
| 2026-05-05 01:27 | 50.19125 | -46.50419 | 34848 ft | 519 kts | 69° |
| 2026-05-05 01:27 | 50.22321 | -46.40337 | 34850 ft | 518 kts | 69° |
| 2026-05-05 01:28 | 50.25513 | -46.30230 | 34853 ft | 518 kts | 69° |
| 2026-05-05 01:28 | 50.28689 | -46.20134 | 34853 ft | 517 kts | 70° |
| 2026-05-05 01:29 | 50.31834 | -46.10091 | 34854 ft | 516 kts | 70° |
| 2026-05-05 01:29 | 50.34983 | -45.99995 | 34857 ft | 516 kts | 70° |
| 2026-05-05 01:30 | 50.38121 | -45.89895 | 34862 ft | 515 kts | 71° |
| 2026-05-05 01:30 | 50.41244 | -45.79801 | 34868 ft | 514 kts | 71° |
| 2026-05-05 01:31 | 50.44350 | -45.69720 | 34875 ft | 513 kts | 71° |
| 2026-05-05 01:31 | 50.47444 | -45.59642 | 34882 ft | 512 kts | 71° |
| 2026-05-05 01:32 | 50.50520 | -45.49575 | 34881 ft | 510 kts | 72° |
| 2026-05-05 01:32 | 50.53582 | -45.39514 | 34875 ft | 509 kts | 72° |
| 2026-05-05 01:33 | 50.56622 | -45.29484 | 34874 ft | 507 kts | 72° |
| 2026-05-05 01:33 | 50.59625 | -45.19536 | 34878 ft | 505 kts | 72° |
| 2026-05-05 01:34 | 50.62623 | -45.09560 | 34883 ft | 503 kts | 73° |
| 2026-05-05 01:34 | 50.65606 | -44.99596 | 34886 ft | 502 kts | 73° |
| 2026-05-05 01:35 | 50.68572 | -44.89644 | 34891 ft | 500 kts | 73° |
| 2026-05-05 01:35 | 50.71525 | -44.79699 | 34892 ft | 499 kts | 73° |
| 2026-05-05 01:36 | 50.74456 | -44.69787 | 34901 ft | 498 kts | 73° |
| 2026-05-05 01:36 | 50.77373 | -44.59879 | 34903 ft | 497 kts | 73° |
| 2026-05-05 01:37 | 50.80280 | -44.49965 | 34901 ft | 496 kts | 73° |
| 2026-05-05 01:37 | 50.83151 | -44.40135 | 34905 ft | 495 kts | 73° |
| 2026-05-05 01:38 | 50.86030 | -44.30233 | 34910 ft | 494 kts | 74° |
| 2026-05-05 01:38 | 50.88893 | -44.20347 | 34909 ft | 494 kts | 74° |
| 2026-05-05 01:39 | 50.91746 | -44.10455 | 34914 ft | 494 kts | 74° |
| 2026-05-05 01:39 | 50.94597 | -44.00528 | 34910 ft | 494 kts | 74° |
| 2026-05-05 01:40 | 50.97438 | -43.90592 | 34914 ft | 494 kts | 74° |
| 2026-05-05 01:40 | 51.00254 | -43.80707 | 34914 ft | 495 kts | 74° |
| 2026-05-05 01:41 | 51.03081 | -43.70738 | 34914 ft | 495 kts | 74° |
| 2026-05-05 01:41 | 51.05904 | -43.60743 | 34929 ft | 496 kts | 74° |
| 2026-05-05 01:42 | 51.08724 | -43.50717 | 34927 ft | 496 kts | 74° |
| 2026-05-05 01:42 | 51.11537 | -43.40670 | 34923 ft | 497 kts | 74° |
| 2026-05-05 01:43 | 51.14326 | -43.30669 | 34927 ft | 497 kts | 74° |
| 2026-05-05 01:43 | 51.17124 | -43.20592 | 34927 ft | 497 kts | 74° |
| 2026-05-05 01:44 | 51.19918 | -43.10490 | 34930 ft | 497 kts | 74° |
| 2026-05-05 01:44 | 51.22697 | -43.00395 | 34928 ft | 497 kts | 74° |
| 2026-05-05 01:45 | 51.25452 | -42.90342 | 34933 ft | 496 kts | 74° |
| 2026-05-05 01:45 | 51.28210 | -42.80238 | 34944 ft | 496 kts | 74° |
| 2026-05-05 01:46 | 51.30957 | -42.70126 | 34942 ft | 496 kts | 74° |
| 2026-05-05 01:46 | 51.33693 | -42.60013 | 34939 ft | 495 kts | 73° |
| 2026-05-05 01:47 | 51.36415 | -42.49906 | 34938 ft | 494 kts | 73° |
| 2026-05-05 01:47 | 51.39107 | -42.39870 | 34943 ft | 494 kts | 73° |
| 2026-05-05 01:48 | 51.41808 | -42.29753 | 34946 ft | 493 kts | 73° |
| 2026-05-05 01:48 | 51.44500 | -42.19626 | 34951 ft | 493 kts | 73° |
| 2026-05-05 01:49 | 51.47180 | -42.09497 | 34956 ft | 493 kts | 73° |
| 2026-05-05 01:49 | 51.49855 | -41.99343 | 34965 ft | 493 kts | 73° |
| 2026-05-05 01:50 | 51.52502 | -41.89251 | 34966 ft | 494 kts | 73° |
| 2026-05-05 01:50 | 51.55164 | -41.79057 | 34972 ft | 494 kts | 73° |
| 2026-05-05 01:51 | 51.57818 | -41.68848 | 34983 ft | 495 kts | 73° |
| 2026-05-05 01:51 | 51.60464 | -41.58625 | 34988 ft | 495 kts | 73° |
| 2026-05-05 01:52 | 51.63086 | -41.48444 | 35000 ft | 496 kts | 73° |
| 2026-05-05 01:52 | 51.65721 | -41.38173 | 35017 ft | 496 kts | 73° |
| 2026-05-05 01:53 | 51.68348 | -41.27880 | 35018 ft | 497 kts | 73° |
| 2026-05-05 01:53 | 51.70973 | -41.17553 | 35025 ft | 497 kts | 73° |
| 2026-05-05 01:54 | 51.73586 | -41.07223 | 35028 ft | 497 kts | 73° |
| 2026-05-05 01:54 | 51.76192 | -40.96872 | 35037 ft | 497 kts | 73° |
| 2026-05-05 01:55 | 51.78777 | -40.86557 | 35043 ft | 497 kts | 73° |
| 2026-05-05 01:55 | 51.81364 | -40.76190 | 35052 ft | 497 kts | 72° |
| 2026-05-05 01:56 | 51.83923 | -40.65883 | 35063 ft | 497 kts | 72° |
| 2026-05-05 01:56 | 51.86489 | -40.55499 | 35070 ft | 497 kts | 72° |
| 2026-05-05 01:57 | 51.89049 | -40.45091 | 35079 ft | 497 kts | 72° |
| 2026-05-05 01:57 | 51.91583 | -40.34741 | 35084 ft | 497 kts | 72° |
| 2026-05-05 01:58 | 51.94121 | -40.24323 | 35086 ft | 498 kts | 72° |
| 2026-05-05 01:58 | 51.96654 | -40.13878 | 35094 ft | 498 kts | 72° |
| 2026-05-05 01:59 | 51.99185 | -40.03393 | 35103 ft | 499 kts | 72° |
| 2026-05-05 01:59 | 52.01749 | -39.92903 | 35116 ft | 501 kts | 71° |
| 2026-05-05 02:00 | 52.04385 | -39.82471 | 35122 ft | 502 kts | 71° |
| 2026-05-05 02:00 | 52.07037 | -39.71977 | 35123 ft | 502 kts | 70° |
| 2026-05-05 02:01 | 52.09668 | -39.61462 | 35137 ft | 503 kts | 70° |
| 2026-05-05 02:01 | 52.12291 | -39.50890 | 35143 ft | 504 kts | 70° |
| 2026-05-05 02:02 | 52.14905 | -39.40292 | 35148 ft | 504 kts | 70° |
| 2026-05-05 02:02 | 52.17510 | -39.29686 | 35151 ft | 505 kts | 70° |
| 2026-05-05 02:03 | 52.20111 | -39.19045 | 35159 ft | 504 kts | 70° |
| 2026-05-05 02:03 | 52.22682 | -39.08478 | 35165 ft | 504 kts | 70° |
| 2026-05-05 02:04 | 52.25256 | -38.97843 | 35174 ft | 504 kts | 70° |
| 2026-05-05 02:04 | 52.27824 | -38.87183 | 35183 ft | 504 kts | 70° |
| 2026-05-05 02:05 | 52.30379 | -38.76527 | 35188 ft | 504 kts | 70° |
| 2026-05-05 02:05 | 52.32926 | -38.65851 | 35192 ft | 504 kts | 70° |
| 2026-05-05 02:06 | 52.35467 | -38.55148 | 35198 ft | 505 kts | 70° |
| 2026-05-05 02:06 | 52.38002 | -38.44417 | 35205 ft | 506 kts | 70° |
| 2026-05-05 02:07 | 52.40518 | -38.33709 | 35213 ft | 507 kts | 69° |
| 2026-05-05 02:07 | 52.43043 | -38.22913 | 35217 ft | 508 kts | 69° |
| 2026-05-05 02:08 | 52.45566 | -38.12070 | 35225 ft | 509 kts | 69° |
| 2026-05-05 02:08 | 52.48080 | -38.01214 | 35232 ft | 510 kts | 69° |
| 2026-05-05 02:09 | 52.50597 | -37.90286 | 35236 ft | 511 kts | 69° |
| 2026-05-05 02:09 | 52.53097 | -37.79373 | 35240 ft | 511 kts | 69° |
| 2026-05-05 02:10 | 52.55595 | -37.68417 | 35248 ft | 512 kts | 69° |
| 2026-05-05 02:10 | 52.58069 | -37.57506 | 35255 ft | 513 kts | 69° |
| 2026-05-05 02:11 | 52.60555 | -37.46489 | 35256 ft | 513 kts | 69° |
| 2026-05-05 02:11 | 52.63032 | -37.35451 | 35263 ft | 514 kts | 69° |
| 2026-05-05 02:12 | 52.66730 | -37.18860 | 35269 ft | 514 kts | 69° |
| 2026-05-05 02:13 | 52.69182 | -37.07790 | 35273 ft | 514 kts | 68° |
| 2026-05-05 02:13 | 52.71607 | -36.96780 | 35280 ft | 514 kts | 68° |
| 2026-05-05 02:14 | 52.74041 | -36.85674 | 35279 ft | 514 kts | 68° |
| 2026-05-05 02:14 | 52.76461 | -36.74566 | 35283 ft | 514 kts | 68° |
| 2026-05-05 02:15 | 52.78871 | -36.63450 | 35290 ft | 514 kts | 68° |
| 2026-05-05 02:15 | 52.80868 | -36.54190 | 35290 ft | 514 kts | 68° |
| 2026-05-05 02:16 | 52.83255 | -36.43065 | 35299 ft | 513 kts | 68° |
| 2026-05-05 02:16 | 52.85633 | -36.31925 | 35303 ft | 513 kts | 68° |
| 2026-05-05 02:17 | 52.87997 | -36.20786 | 35302 ft | 513 kts | 68° |
| 2026-05-05 02:17 | 52.90350 | -36.09643 | 35298 ft | 512 kts | 67° |
| 2026-05-05 02:18 | 52.92691 | -35.98489 | 35306 ft | 512 kts | 67° |
| 2026-05-05 02:18 | 52.95004 | -35.87409 | 35315 ft | 511 kts | 67° |
| 2026-05-05 02:19 | 52.97320 | -35.76258 | 35319 ft | 511 kts | 67° |
| 2026-05-05 02:19 | 52.99629 | -35.65073 | 35327 ft | 511 kts | 67° |
| 2026-05-05 02:20 | 53.01926 | -35.53889 | 35333 ft | 512 kts | 66° |
| 2026-05-05 02:20 | 53.04212 | -35.42690 | 35327 ft | 512 kts | 66° |
| 2026-05-05 02:21 | 53.06474 | -35.31548 | 35337 ft | 512 kts | 66° |
| 2026-05-05 02:21 | 53.08742 | -35.20311 | 35340 ft | 513 kts | 66° |
| 2026-05-05 02:22 | 53.11003 | -35.09043 | 35340 ft | 513 kts | 66° |
| 2026-05-05 02:22 | 53.13255 | -34.97758 | 35344 ft | 513 kts | 66° |
| 2026-05-05 02:23 | 53.15493 | -34.86478 | 35345 ft | 513 kts | 66° |
| 2026-05-05 02:23 | 53.17724 | -34.75165 | 35348 ft | 513 kts | 66° |
| 2026-05-05 02:24 | 53.19943 | -34.63849 | 35350 ft | 513 kts | 66° |
| 2026-05-05 02:24 | 53.22134 | -34.52607 | 35356 ft | 513 kts | 66° |
| 2026-05-05 02:25 | 53.24329 | -34.41281 | 35357 ft | 513 kts | 66° |
| 2026-05-05 02:25 | 53.26511 | -34.29953 | 35354 ft | 512 kts | 66° |
| 2026-05-05 02:26 | 53.28682 | -34.18618 | 35362 ft | 512 kts | 66° |
| 2026-05-05 02:26 | 53.30846 | -34.07250 | 35367 ft | 512 kts | 66° |
| 2026-05-05 02:27 | 53.32994 | -33.95897 | 35369 ft | 512 kts | 66° |
| 2026-05-05 02:27 | 53.35118 | -33.84601 | 35376 ft | 512 kts | 66° |
| 2026-05-05 02:28 | 53.37243 | -33.73237 | 35377 ft | 511 kts | 66° |
| 2026-05-05 02:28 | 53.39357 | -33.61861 | 35379 ft | 511 kts | 66° |
| 2026-05-05 02:29 | 53.41460 | -33.50473 | 35378 ft | 510 kts | 66° |
| 2026-05-05 02:29 | 53.43550 | -33.39085 | 35378 ft | 510 kts | 66° |
| 2026-05-05 02:30 | 53.45622 | -33.27724 | 35383 ft | 509 kts | 66° |
| 2026-05-05 02:30 | 53.47673 | -33.16411 | 35385 ft | 508 kts | 66° |
| 2026-05-05 02:31 | 53.49718 | -33.05061 | 35389 ft | 508 kts | 67° |
| 2026-05-05 02:31 | 53.51759 | -32.93664 | 35387 ft | 508 kts | 67° |
| 2026-05-05 02:32 | 53.53782 | -32.82297 | 35388 ft | 507 kts | 67° |
| 2026-05-05 02:32 | 53.55792 | -32.70927 | 35388 ft | 507 kts | 67° |
| 2026-05-05 02:33 | 53.57792 | -32.59549 | 35389 ft | 507 kts | 68° |
| 2026-05-05 02:33 | 53.59764 | -32.48251 | 35388 ft | 507 kts | 68° |
| 2026-05-05 02:34 | 53.61740 | -32.36861 | 35391 ft | 507 kts | 68° |
| 2026-05-05 02:34 | 53.63708 | -32.25450 | 35397 ft | 507 kts | 68° |
| 2026-05-05 02:35 | 53.65664 | -32.14027 | 35395 ft | 507 kts | 69° |
| 2026-05-05 02:35 | 53.67609 | -32.02597 | 35397 ft | 507 kts | 69° |
| 2026-05-05 02:36 | 53.69532 | -31.91219 | 35397 ft | 507 kts | 69° |
| 2026-05-05 02:36 | 53.71456 | -31.79764 | 35396 ft | 507 kts | 69° |
| 2026-05-05 02:37 | 53.73368 | -31.68305 | 35397 ft | 506 kts | 70° |
| 2026-05-05 02:37 | 53.75268 | -31.56842 | 35398 ft | 506 kts | 70° |
| 2026-05-05 02:38 | 53.77153 | -31.45391 | 35399 ft | 505 kts | 70° |
| 2026-05-05 02:38 | 53.79023 | -31.33954 | 35399 ft | 505 kts | 70° |
| 2026-05-05 02:39 | 53.80871 | -31.22573 | 35397 ft | 504 kts | 71° |
| 2026-05-05 02:39 | 53.82715 | -31.11142 | 35397 ft | 503 kts | 71° |
| 2026-05-05 02:40 | 53.84550 | -30.99695 | 35404 ft | 503 kts | 71° |
| 2026-05-05 02:40 | 53.86372 | -30.88248 | 35394 ft | 503 kts | 71° |
| 2026-05-05 02:41 | 53.88183 | -30.76788 | 35396 ft | 502 kts | 71° |
| 2026-05-05 02:41 | 53.89968 | -30.65423 | 35393 ft | 502 kts | 71° |
| 2026-05-05 02:42 | 53.91754 | -30.53963 | 35393 ft | 502 kts | 72° |
| 2026-05-05 02:42 | 53.93531 | -30.42487 | 35395 ft | 502 kts | 72° |
| 2026-05-05 02:43 | 53.95298 | -30.30990 | 35395 ft | 502 kts | 72° |
| 2026-05-05 02:43 | 53.97054 | -30.19487 | 35398 ft | 502 kts | 72° |
| 2026-05-05 02:44 | 53.98786 | -30.08069 | 35393 ft | 502 kts | 72° |
| 2026-05-05 02:44 | 54.00512 | -29.96569 | 35392 ft | 502 kts | 73° |
| 2026-05-05 02:45 | 54.02178 | -29.85013 | 35392 ft | 503 kts | 73° |
| 2026-05-05 02:45 | 54.03814 | -29.73457 | 35393 ft | 502 kts | 73° |
| 2026-05-05 02:46 | 54.05444 | -29.61885 | 35392 ft | 502 kts | 73° |
| 2026-05-05 02:46 | 54.07067 | -29.50322 | 35389 ft | 502 kts | 73° |
| 2026-05-05 02:47 | 54.08683 | -29.38741 | 35390 ft | 502 kts | 73° |
| 2026-05-05 02:47 | 54.10288 | -29.27148 | 35391 ft | 502 kts | 73° |
| 2026-05-05 02:48 | 54.11870 | -29.15632 | 35390 ft | 502 kts | 74° |
| 2026-05-05 02:48 | 54.13451 | -29.04027 | 35391 ft | 502 kts | 74° |
| 2026-05-05 02:49 | 54.15018 | -28.92436 | 35385 ft | 502 kts | 74° |
| 2026-05-05 02:49 | 54.16575 | -28.80824 | 35384 ft | 501 kts | 74° |
| 2026-05-05 02:50 | 54.18122 | -28.69203 | 35386 ft | 501 kts | 74° |
| 2026-05-05 02:50 | 54.19653 | -28.57603 | 35385 ft | 501 kts | 74° |
| 2026-05-05 02:51 | 54.21174 | -28.45990 | 35379 ft | 501 kts | 74° |
| 2026-05-05 02:51 | 54.22684 | -28.34363 | 35379 ft | 500 kts | 75° |
| 2026-05-05 02:52 | 54.24182 | -28.22741 | 35381 ft | 500 kts | 75° |
| 2026-05-05 02:52 | 54.25658 | -28.11185 | 35378 ft | 500 kts | 75° |
| 2026-05-05 02:53 | 54.27131 | -27.99567 | 35377 ft | 499 kts | 75° |
| 2026-05-05 02:53 | 54.28593 | -27.87933 | 35377 ft | 499 kts | 75° |
| 2026-05-05 02:54 | 54.30035 | -27.76368 | 35376 ft | 499 kts | 75° |
| 2026-05-05 02:54 | 54.31481 | -27.64662 | 35363 ft | 499 kts | 75° |
| 2026-05-05 02:55 | 54.32906 | -27.53036 | 35368 ft | 499 kts | 76° |
| 2026-05-05 02:55 | 54.34319 | -27.41406 | 35369 ft | 499 kts | 76° |
| 2026-05-05 02:56 | 54.35715 | -27.29816 | 35365 ft | 499 kts | 76° |
| 2026-05-05 02:56 | 54.37109 | -27.18147 | 35365 ft | 499 kts | 76° |
| 2026-05-05 02:57 | 54.38491 | -27.06470 | 35360 ft | 500 kts | 76° |
| 2026-05-05 02:57 | 54.39864 | -26.94768 | 35364 ft | 500 kts | 77° |
| 2026-05-05 02:58 | 54.41226 | -26.83054 | 35361 ft | 500 kts | 77° |
| 2026-05-05 02:58 | 54.42578 | -26.71318 | 35358 ft | 501 kts | 77° |
| 2026-05-05 02:59 | 54.43918 | -26.59587 | 35363 ft | 501 kts | 77° |
| 2026-05-05 02:59 | 54.45248 | -26.47824 | 35356 ft | 501 kts | 77° |
| 2026-05-05 03:00 | 54.46560 | -26.36126 | 35356 ft | 501 kts | 78° |
| 2026-05-05 03:00 | 54.47870 | -26.24331 | 35353 ft | 502 kts | 78° |
| 2026-05-05 03:01 | 54.49166 | -26.12546 | 35348 ft | 502 kts | 78° |
| 2026-05-05 03:01 | 54.50453 | -26.00737 | 35351 ft | 502 kts | 78° |
| 2026-05-05 03:02 | 54.51730 | -25.88902 | 35350 ft | 503 kts | 78° |
| 2026-05-05 03:02 | 54.52782 | -25.79067 | 35347 ft | 503 kts | 78° |
| 2026-05-05 03:03 | 54.54039 | -25.67217 | 35346 ft | 503 kts | 78° |
| 2026-05-05 03:03 | 54.55283 | -25.55363 | 35343 ft | 503 kts | 79° |
| 2026-05-05 03:04 | 54.56516 | -25.43498 | 35345 ft | 503 kts | 79° |
| 2026-05-05 03:04 | 54.57738 | -25.31619 | 35340 ft | 502 kts | 79° |
| 2026-05-05 03:05 | 54.58940 | -25.19823 | 35337 ft | 502 kts | 79° |
| 2026-05-05 03:05 | 54.60135 | -25.07975 | 35335 ft | 502 kts | 79° |
| 2026-05-05 03:06 | 54.61327 | -24.96028 | 35334 ft | 502 kts | 79° |
| 2026-05-05 03:06 | 54.62494 | -24.84203 | 35332 ft | 502 kts | 79° |
| 2026-05-05 03:07 | 54.63657 | -24.72300 | 35333 ft | 502 kts | 79° |
| 2026-05-05 03:07 | 54.64810 | -24.60376 | 35329 ft | 503 kts | 80° |
| 2026-05-05 03:08 | 54.65941 | -24.48553 | 35330 ft | 503 kts | 80° |
| 2026-05-05 03:08 | 54.67070 | -24.36621 | 35322 ft | 503 kts | 80° |
| 2026-05-05 03:09 | 54.68187 | -24.24681 | 35328 ft | 503 kts | 80° |
| 2026-05-05 03:09 | 54.69295 | -24.12707 | 35328 ft | 503 kts | 80° |
| 2026-05-05 03:10 | 54.70389 | -24.00756 | 35323 ft | 504 kts | 81° |
| 2026-05-05 03:10 | 54.71466 | -23.88855 | 35327 ft | 504 kts | 81° |
| 2026-05-05 03:11 | 54.72538 | -23.76867 | 35317 ft | 504 kts | 81° |
| 2026-05-05 03:11 | 54.73600 | -23.64856 | 35315 ft | 504 kts | 81° |
| 2026-05-05 03:12 | 54.74649 | -23.52851 | 35320 ft | 504 kts | 81° |
| 2026-05-05 03:12 | 54.75682 | -23.40881 | 35309 ft | 505 kts | 81° |
| 2026-05-05 03:13 | 54.76708 | -23.28861 | 35321 ft | 505 kts | 81° |
| 2026-05-05 03:13 | 54.77722 | -23.16827 | 35309 ft | 505 kts | 81° |
| 2026-05-05 03:14 | 54.78724 | -23.04797 | 35316 ft | 505 kts | 82° |
| 2026-05-05 03:14 | 54.79715 | -22.92741 | 35305 ft | 505 kts | 82° |
| 2026-05-05 03:15 | 54.80695 | -22.80674 | 35310 ft | 505 kts | 82° |
| 2026-05-05 03:15 | 54.81663 | -22.68595 | 35304 ft | 505 kts | 82° |
| 2026-05-05 03:16 | 54.82618 | -22.56531 | 35305 ft | 505 kts | 82° |
| 2026-05-05 03:16 | 54.83556 | -22.44517 | 35302 ft | 505 kts | 82° |
| 2026-05-05 03:17 | 54.84488 | -22.32428 | 35300 ft | 505 kts | 82° |
| 2026-05-05 03:17 | 54.85407 | -22.20337 | 35298 ft | 505 kts | 82° |
| 2026-05-05 03:18 | 54.86316 | -22.08225 | 35303 ft | 505 kts | 82° |
| 2026-05-05 03:18 | 54.87212 | -21.96108 | 35295 ft | 506 kts | 83° |
| 2026-05-05 03:19 | 54.88528 | -21.78012 | 35301 ft | 506 kts | 83° |
| 2026-05-05 03:19 | 54.89395 | -21.65874 | 35287 ft | 506 kts | 83° |
| 2026-05-05 03:20 | 54.90250 | -21.53739 | 35288 ft | 506 kts | 83° |
| 2026-05-05 03:20 | 54.91092 | -21.41598 | 35291 ft | 506 kts | 83° |
| 2026-05-05 03:21 | 54.91916 | -21.29545 | 35290 ft | 505 kts | 83° |
| 2026-05-05 03:21 | 54.92733 | -21.17406 | 35291 ft | 505 kts | 83° |
| 2026-05-05 03:22 | 54.93538 | -21.05262 | 35284 ft | 505 kts | 83° |
| 2026-05-05 03:22 | 54.94332 | -20.93111 | 35285 ft | 505 kts | 83° |
| 2026-05-05 03:23 | 54.95112 | -20.80968 | 35275 ft | 505 kts | 83° |
| 2026-05-05 03:23 | 54.95881 | -20.68819 | 35270 ft | 505 kts | 83° |
| 2026-05-05 03:24 | 54.96637 | -20.56658 | 35272 ft | 505 kts | 83° |
| 2026-05-05 03:24 | 54.97383 | -20.44480 | 35281 ft | 505 kts | 84° |
| 2026-05-05 03:25 | 54.98111 | -20.32383 | 35263 ft | 505 kts | 84° |
| 2026-05-05 03:25 | 54.98831 | -20.20209 | 35266 ft | 505 kts | 84° |
| 2026-05-05 03:26 | 54.99542 | -20.08006 | 35264 ft | 505 kts | 84° |
| 2026-05-05 03:26 | 55.00141 | -19.95878 | 35263 ft | 505 kts | 87° |
| 2026-05-05 03:27 | 55.00392 | -19.83646 | 35280 ft | 505 kts | 88° |
| 2026-05-05 03:27 | 55.00574 | -19.71392 | 35270 ft | 505 kts | 88° |
| 2026-05-05 03:28 | 55.00765 | -19.59199 | 35273 ft | 506 kts | 88° |
| 2026-05-05 03:28 | 55.00965 | -19.46962 | 35270 ft | 506 kts | 88° |
| 2026-05-05 03:29 | 55.01159 | -19.34725 | 35266 ft | 506 kts | 88° |
| 2026-05-05 03:29 | 55.01341 | -19.22471 | 35269 ft | 505 kts | 88° |
| 2026-05-05 03:30 | 55.01509 | -19.10214 | 35253 ft | 505 kts | 88° |
| 2026-05-05 03:30 | 55.01663 | -18.97971 | 35252 ft | 505 kts | 88° |
| 2026-05-05 03:31 | 55.01805 | -18.85762 | 35254 ft | 505 kts | 89° |
| 2026-05-05 03:31 | 55.01935 | -18.73515 | 35251 ft | 505 kts | 89° |
| 2026-05-05 03:32 | 55.02053 | -18.61275 | 35250 ft | 505 kts | 89° |
| 2026-05-05 03:32 | 55.02159 | -18.49025 | 35250 ft | 505 kts | 89° |
| 2026-05-05 03:33 | 55.02252 | -18.36774 | 35251 ft | 505 kts | 89° |
| 2026-05-05 03:33 | 55.02332 | -18.24594 | 35251 ft | 505 kts | 89° |
| 2026-05-05 03:34 | 55.02401 | -18.12320 | 35249 ft | 505 kts | 89° |
| 2026-05-05 03:34 | 55.02458 | -18.00086 | 35249 ft | 505 kts | 89° |
| 2026-05-05 03:35 | 55.02502 | -17.87852 | 35243 ft | 505 kts | 89° |
| 2026-05-05 03:35 | 55.02534 | -17.75611 | 35242 ft | 505 kts | 89° |
| 2026-05-05 03:36 | 55.02553 | -17.63382 | 35243 ft | 505 kts | 89° |
| 2026-05-05 03:36 | 55.02560 | -17.51155 | 35243 ft | 505 kts | 89° |
| 2026-05-05 03:37 | 55.02555 | -17.38972 | 35243 ft | 504 kts | 89° |
| 2026-05-05 03:37 | 55.02538 | -17.26748 | 35238 ft | 504 kts | 89° |
| 2026-05-05 03:38 | 55.02509 | -17.14525 | 35239 ft | 504 kts | 90° |
| 2026-05-05 03:38 | 55.02467 | -17.02292 | 35239 ft | 504 kts | 90° |
| 2026-05-05 03:39 | 55.02413 | -16.90138 | 35236 ft | 504 kts | 90° |
| 2026-05-05 03:39 | 55.02347 | -16.77923 | 35236 ft | 504 kts | 90° |
| 2026-05-05 03:40 | 55.02269 | -16.65705 | 35232 ft | 504 kts | 90° |
| 2026-05-05 03:40 | 55.02179 | -16.53499 | 35233 ft | 503 kts | 90° |
| 2026-05-05 03:41 | 55.02076 | -16.41296 | 35231 ft | 503 kts | 90° |
| 2026-05-05 03:41 | 55.01961 | -16.29092 | 35229 ft | 503 kts | 90° |
| 2026-05-05 03:42 | 55.01835 | -16.17004 | 35225 ft | 503 kts | 90° |
| 2026-05-05 03:42 | 55.01696 | -16.04813 | 35225 ft | 502 kts | 90° |
| 2026-05-05 03:43 | 55.01545 | -15.92616 | 35224 ft | 502 kts | 90° |
| 2026-05-05 03:43 | 55.01382 | -15.80430 | 35220 ft | 502 kts | 90° |
| 2026-05-05 03:44 | 55.01207 | -15.68279 | 35219 ft | 502 kts | 91° |
| 2026-05-05 03:44 | 55.01020 | -15.56134 | 35217 ft | 501 kts | 91° |
| 2026-05-05 03:45 | 55.00822 | -15.44057 | 35214 ft | 501 kts | 91° |
| 2026-05-05 03:45 | 55.00611 | -15.31922 | 35214 ft | 501 kts | 91° |
| 2026-05-05 03:46 | 55.00389 | -15.19807 | 35215 ft | 500 kts | 91° |
| 2026-05-05 03:46 | 55.00156 | -15.07686 | 35210 ft | 500 kts | 91° |
| 2026-05-05 03:47 | 54.99939 | -14.95591 | 35211 ft | 499 kts | 90° |
| 2026-05-05 03:47 | 54.99977 | -14.83505 | 35211 ft | 499 kts | 89° |
| 2026-05-05 03:48 | 55.00065 | -14.71488 | 35209 ft | 499 kts | 89° |
| 2026-05-05 03:48 | 55.00102 | -14.59385 | 35206 ft | 499 kts | 89° |
| 2026-05-05 03:49 | 55.00104 | -14.47283 | 35207 ft | 499 kts | 89° |
| 2026-05-05 03:49 | 55.00092 | -14.35286 | 35203 ft | 499 kts | 89° |
| 2026-05-05 03:50 | 55.00071 | -14.23175 | 35199 ft | 499 kts | 89° |
| 2026-05-05 03:50 | 55.00041 | -14.11095 | 35200 ft | 499 kts | 89° |
| 2026-05-05 03:51 | 54.99821 | -13.99027 | 35199 ft | 499 kts | 95° |
| 2026-05-05 03:51 | 54.98564 | -13.87192 | 35193 ft | 500 kts | 102° |
| 2026-05-05 03:52 | 54.97061 | -13.75377 | 35196 ft | 500 kts | 102° |
| 2026-05-05 03:52 | 54.95571 | -13.63545 | 35193 ft | 500 kts | 102° |
| 2026-05-05 03:53 | 54.94348 | -13.53706 | 35190 ft | 501 kts | 101° |
| 2026-05-05 03:53 | 54.92879 | -13.41863 | 35189 ft | 501 kts | 101° |
| 2026-05-05 03:54 | 54.91396 | -13.30014 | 35186 ft | 501 kts | 102° |
| 2026-05-05 03:54 | 54.89903 | -13.18189 | 35187 ft | 501 kts | 102° |
| 2026-05-05 03:55 | 54.88394 | -13.06358 | 35183 ft | 501 kts | 102° |
| 2026-05-05 03:55 | 54.86873 | -12.94530 | 35176 ft | 501 kts | 102° |
| 2026-05-05 03:56 | 54.85343 | -12.82724 | 35177 ft | 501 kts | 102° |
| 2026-05-05 03:56 | 54.83800 | -12.70923 | 35173 ft | 501 kts | 102° |
| 2026-05-05 03:57 | 54.82250 | -12.59154 | 35170 ft | 501 kts | 102° |
| 2026-05-05 03:57 | 54.80695 | -12.47454 | 35171 ft | 500 kts | 102° |
| 2026-05-05 03:58 | 54.79122 | -12.35703 | 35168 ft | 500 kts | 102° |
| 2026-05-05 03:58 | 54.77537 | -12.23964 | 35166 ft | 500 kts | 102° |
| 2026-05-05 03:59 | 54.75943 | -12.12243 | 35161 ft | 499 kts | 102° |
| 2026-05-05 03:59 | 54.74338 | -12.00537 | 35164 ft | 499 kts | 103° |
| 2026-05-05 04:00 | 54.72733 | -11.88920 | 35158 ft | 499 kts | 103° |
| 2026-05-05 04:00 | 54.71106 | -11.77236 | 35159 ft | 499 kts | 103° |
| 2026-05-05 04:01 | 54.69466 | -11.65564 | 35161 ft | 499 kts | 103° |
| 2026-05-05 04:01 | 54.67814 | -11.53870 | 35159 ft | 500 kts | 103° |
| 2026-05-05 04:02 | 54.66151 | -11.42195 | 35152 ft | 501 kts | 103° |
| 2026-05-05 04:02 | 54.64479 | -11.30544 | 35149 ft | 500 kts | 103° |
| 2026-05-05 04:03 | 54.62790 | -11.18874 | 35148 ft | 500 kts | 103° |
| 2026-05-05 04:03 | 54.61105 | -11.07308 | 35144 ft | 499 kts | 103° |
| 2026-05-05 04:04 | 54.59400 | -10.95691 | 35144 ft | 499 kts | 103° |
| 2026-05-05 04:04 | 54.57687 | -10.84107 | 35142 ft | 498 kts | 103° |
| 2026-05-05 04:05 | 54.55964 | -10.72536 | 35142 ft | 498 kts | 103° |
| 2026-05-05 04:05 | 54.54232 | -10.60991 | 35134 ft | 497 kts | 103° |
| 2026-05-05 04:06 | 54.52491 | -10.49469 | 35136 ft | 497 kts | 104° |
| 2026-05-05 04:06 | 54.50742 | -10.37976 | 35133 ft | 496 kts | 104° |
| 2026-05-05 04:07 | 54.48994 | -10.26558 | 35135 ft | 496 kts | 104° |
| 2026-05-05 04:07 | 54.47226 | -10.15089 | 35129 ft | 496 kts | 104° |
| 2026-05-05 04:08 | 54.45011 | -10.03859 | 35128 ft | 496 kts | 111° |
| 2026-05-05 04:08 | 54.42435 | -9.92845 | 35128 ft | 496 kts | 111° |
| 2026-05-05 04:09 | 54.39847 | -9.81836 | 35125 ft | 496 kts | 111° |
| 2026-05-05 04:09 | 54.37282 | -9.70829 | 35127 ft | 496 kts | 111° |
| 2026-05-05 04:10 | 54.34742 | -9.59917 | 35126 ft | 496 kts | 111° |
| 2026-05-05 04:10 | 54.32175 | -9.48940 | 35121 ft | 496 kts | 111° |
| 2026-05-05 04:11 | 54.29602 | -9.37998 | 35121 ft | 496 kts | 111° |
| 2026-05-05 04:11 | 54.27015 | -9.27058 | 35120 ft | 495 kts | 111° |
| 2026-05-05 04:12 | 54.24421 | -9.16148 | 35118 ft | 495 kts | 112° |
| 2026-05-05 04:12 | 54.21817 | -9.05246 | 35116 ft | 494 kts | 112° |
| 2026-05-05 04:13 | 54.19224 | -8.94448 | 35117 ft | 494 kts | 112° |
| 2026-05-05 04:13 | 54.16618 | -8.83646 | 34678 ft | 491 kts | 112° |
| 2026-05-05 04:14 | 54.15310 | -8.78249 | 34230 ft | 493 kts | 112° |
| 2026-05-05 04:14 | 54.13999 | -8.72845 | 33767 ft | 494 kts | 112° |
| 2026-05-05 04:14 | 54.12678 | -8.67420 | 33268 ft | 495 kts | 112° |
| 2026-05-05 04:14 | 54.11358 | -8.62010 | 32759 ft | 496 kts | 112° |
| 2026-05-05 04:15 | 54.10027 | -8.56567 | 32191 ft | 497 kts | 112° |
| 2026-05-05 04:15 | 54.08694 | -8.51130 | 31605 ft | 498 kts | 112° |
| 2026-05-05 04:15 | 54.07352 | -8.45670 | 30974 ft | 500 kts | 112° |
| 2026-05-05 04:15 | 54.06005 | -8.40203 | 30427 ft | 500 kts | 112° |
| 2026-05-05 04:16 | 54.04667 | -8.34787 | 30007 ft | 496 kts | 112° |
| 2026-05-05 04:16 | 54.03330 | -8.29392 | 29604 ft | 491 kts | 113° |
| 2026-05-05 04:16 | 54.02009 | -8.24071 | 29187 ft | 487 kts | 113° |
| 2026-05-05 04:16 | 54.00709 | -8.18847 | 28743 ft | 484 kts | 113° |
| 2026-05-05 04:17 | 53.99399 | -8.13597 | 28305 ft | 481 kts | 113° |
| 2026-05-05 04:17 | 53.98094 | -8.08379 | 27789 ft | 477 kts | 113° |
| 2026-05-05 04:17 | 53.96802 | -8.03221 | 27058 ft | 472 kts | 113° |
| 2026-05-05 04:17 | 53.95520 | -7.98121 | 26380 ft | 466 kts | 113° |
| 2026-05-05 04:18 | 53.94251 | -7.93077 | 25686 ft | 461 kts | 113° |
| 2026-05-05 04:18 | 53.92993 | -7.88091 | 25012 ft | 456 kts | 113° |
| 2026-05-05 04:18 | 53.91751 | -7.83181 | 24353 ft | 452 kts | 113° |
| 2026-05-05 04:18 | 53.90527 | -7.78354 | 23710 ft | 448 kts | 113° |
| 2026-05-05 04:19 | 53.89299 | -7.73517 | 22957 ft | 445 kts | 113° |
| 2026-05-05 04:19 | 53.88079 | -7.68724 | 22261 ft | 440 kts | 113° |
| 2026-05-05 04:19 | 53.86872 | -7.63995 | 21612 ft | 435 kts | 113° |
| 2026-05-05 04:19 | 53.85676 | -7.59313 | 20989 ft | 430 kts | 113° |
| 2026-05-05 04:20 | 53.84488 | -7.54677 | 20367 ft | 426 kts | 113° |
| 2026-05-05 04:20 | 53.83313 | -7.50096 | 19758 ft | 422 kts | 113° |
| 2026-05-05 04:20 | 53.82142 | -7.45542 | 19179 ft | 419 kts | 113° |
| 2026-05-05 04:20 | 53.80985 | -7.41046 | 18602 ft | 415 kts | 113° |
| 2026-05-05 04:21 | 53.79834 | -7.36587 | 17981 ft | 412 kts | 113° |
| 2026-05-05 04:21 | 53.78686 | -7.32151 | 17350 ft | 409 kts | 113° |
| 2026-05-05 04:21 | 53.77688 | -7.27706 | 16899 ft | 399 kts | 104° |
| 2026-05-05 04:21 | 53.77168 | -7.23188 | 16678 ft | 397 kts | 98° |
| 2026-05-05 04:22 | 53.76752 | -7.18533 | 16414 ft | 403 kts | 97° |
| 2026-05-05 04:22 | 53.76342 | -7.13831 | 16137 ft | 404 kts | 98° |
| 2026-05-05 04:22 | 53.75917 | -7.09157 | 15862 ft | 401 kts | 98° |
| 2026-05-05 04:22 | 53.75472 | -7.04502 | 15588 ft | 399 kts | 99° |
| 2026-05-05 04:23 | 53.75016 | -6.99891 | 15263 ft | 397 kts | 99° |
| 2026-05-05 04:23 | 53.74551 | -6.95304 | 14857 ft | 394 kts | 99° |
| 2026-05-05 04:23 | 53.74086 | -6.90759 | 14361 ft | 390 kts | 99° |
| 2026-05-05 04:23 | 53.73631 | -6.86343 | 13827 ft | 387 kts | 99° |
| 2026-05-05 04:24 | 53.73162 | -6.81812 | 13219 ft | 384 kts | 99° |
| 2026-05-05 04:24 | 53.72709 | -6.77447 | 12667 ft | 381 kts | 99° |
| 2026-05-05 04:24 | 53.72251 | -6.73047 | 12124 ft | 377 kts | 99° |
| 2026-05-05 04:25 | 53.71346 | -6.64385 | 11069 ft | 371 kts | 99° |
| 2026-05-05 04:25 | 53.70898 | -6.60122 | 10557 ft | 368 kts | 99° |
| 2026-05-05 04:25 | 53.70450 | -6.55908 | 10304 ft | 357 kts | 99° |
| 2026-05-05 04:25 | 53.70018 | -6.51865 | 10199 ft | 343 kts | 99° |
| 2026-05-05 04:26 | 53.69606 | -6.48008 | 10089 ft | 322 kts | 99° |
| 2026-05-05 04:26 | 53.69219 | -6.44411 | 9811 ft | 302 kts | 99° |
| 2026-05-05 04:26 | 53.68851 | -6.40984 | 9428 ft | 295 kts | 99° |
| 2026-05-05 04:26 | 53.68487 | -6.37605 | 9146 ft | 290 kts | 99° |
| 2026-05-05 04:27 | 53.68128 | -6.34275 | 8820 ft | 287 kts | 99° |
| 2026-05-05 04:27 | 53.67772 | -6.30978 | 8488 ft | 286 kts | 99° |
| 2026-05-05 04:27 | 53.67419 | -6.27712 | 8137 ft | 285 kts | 99° |
| 2026-05-05 04:27 | 53.67062 | -6.24434 | 7803 ft | 284 kts | 99° |
| 2026-05-05 04:28 | 53.66705 | -6.21166 | 7477 ft | 282 kts | 99° |
| 2026-05-05 04:28 | 53.66349 | -6.17919 | 7159 ft | 281 kts | 99° |
| 2026-05-05 04:28 | 53.65993 | -6.14684 | 6833 ft | 280 kts | 99° |
| 2026-05-05 04:28 | 53.65639 | -6.11467 | 6506 ft | 279 kts | 99° |
| 2026-05-05 04:29 | 53.65285 | -6.08255 | 6193 ft | 277 kts | 99° |
| 2026-05-05 04:29 | 53.64933 | -6.05072 | 5875 ft | 275 kts | 99° |
| 2026-05-05 04:29 | 53.64583 | -6.01915 | 5548 ft | 274 kts | 99° |
| 2026-05-05 04:29 | 53.64232 | -5.98766 | 5228 ft | 272 kts | 99° |
| 2026-05-05 04:30 | 53.63891 | -5.95652 | 5061 ft | 266 kts | 97° |
| 2026-05-05 04:30 | 53.63685 | -5.92589 | 5013 ft | 262 kts | 93° |
| 2026-05-05 04:30 | 53.63538 | -5.89485 | 4995 ft | 267 kts | 93° |
| 2026-05-05 04:30 | 53.63383 | -5.86362 | 4989 ft | 269 kts | 93° |
| 2026-05-05 04:31 | 53.63216 | -5.83203 | 4992 ft | 273 kts | 93° |
| 2026-05-05 04:31 | 53.63040 | -5.80003 | 4994 ft | 275 kts | 93° |
| 2026-05-05 04:31 | 53.62769 | -5.76829 | 4976 ft | 273 kts | 107° |
| 2026-05-05 04:31 | 53.61813 | -5.74105 | 4989 ft | 270 kts | 131° |
| 2026-05-05 04:32 | 53.60306 | -5.72326 | 4955 ft | 271 kts | 161° |
| 2026-05-05 04:32 | 53.58454 | -5.72103 | 4766 ft | 266 kts | 194° |
| 2026-05-05 04:32 | 53.56808 | -5.73311 | 4673 ft | 252 kts | 216° |
| 2026-05-05 04:32 | 53.55426 | -5.75018 | 4523 ft | 242 kts | 219° |
| 2026-05-05 04:33 | 53.54112 | -5.76723 | 4380 ft | 235 kts | 220° |
| 2026-05-05 04:33 | 53.52836 | -5.78391 | 4140 ft | 231 kts | 219° |
| 2026-05-05 04:33 | 53.51565 | -5.80050 | 3823 ft | 232 kts | 219° |
| 2026-05-05 04:33 | 53.50291 | -5.81706 | 3560 ft | 230 kts | 219° |
| 2026-05-05 04:34 | 53.49031 | -5.83341 | 3287 ft | 228 kts | 219° |
| 2026-05-05 04:34 | 53.47800 | -5.84934 | 3060 ft | 223 kts | 219° |
| 2026-05-05 04:34 | 53.46596 | -5.86485 | 3008 ft | 214 kts | 219° |
| 2026-05-05 04:34 | 53.45410 | -5.88011 | 3004 ft | 220 kts | 219° |
| 2026-05-05 04:35 | 53.44178 | -5.89593 | 3003 ft | 226 kts | 219° |
| 2026-05-05 04:35 | 53.42927 | -5.91197 | 2995 ft | 227 kts | 219° |
| 2026-05-05 04:35 | 53.41678 | -5.92801 | 2989 ft | 224 kts | 221° |
| 2026-05-05 04:35 | 53.40781 | -5.94833 | 2981 ft | 217 kts | 255° |
| 2026-05-05 04:36 | 53.40623 | -5.97315 | 3013 ft | 216 kts | 271° |
| 2026-05-05 04:36 | 53.40649 | -5.99864 | 3005 ft | 219 kts | 276° |
| 2026-05-05 04:36 | 53.40770 | -6.02404 | 2978 ft | 218 kts | 277° |
| 2026-05-05 04:36 | 53.40914 | -6.04939 | 2682 ft | 216 kts | 277° |
| 2026-05-05 04:37 | 53.41052 | -6.07416 | 2379 ft | 211 kts | 277° |
| 2026-05-05 04:37 | 53.41185 | -6.09829 | 2091 ft | 206 kts | 278° |
| 2026-05-05 04:37 | 53.41313 | -6.12160 | 1797 ft | 193 kts | 278° |
| 2026-05-05 04:37 | 53.41431 | -6.14300 | 1549 ft | 175 kts | 278° |
| 2026-05-05 04:38 | 53.41536 | -6.16206 | 1327 ft | 155 kts | 278° |
| 2026-05-05 04:38 | 53.41630 | -6.17901 | 1101 ft | 138 kts | 278° |
| 2026-05-05 04:38 | 53.41716 | -6.19447 | 910 ft | 132 kts | 277° |
| 2026-05-05 04:38 | 53.41802 | -6.21011 | 735 ft | 136 kts | 277° |
| 2026-05-05 04:39 | 53.41886 | -6.22573 | 538 ft | 134 kts | 276° |
| 2026-05-05 04:39 | 53.41972 | -6.24116 | 365 ft | 133 kts | 276° |
| 2026-05-05 04:39 | 53.42055 | -6.25641 | 224 ft | 128 kts | 277° |
| 2026-05-05 04:39 | 53.42129 | -6.26939 | 216 ft | 87 kts | 275° |
| 2026-05-05 04:40 | 53.42170 | -6.27670 | 216 ft | 41 kts | 277° |
| 2026-05-05 04:40 | 53.42244 | -6.27976 | 221 ft | 24 kts | 299° |
| 2026-05-05 04:40 | 53.42281 | -6.28079 | 219 ft | 12 kts | 304° |
| 2026-05-05 04:40 | 53.42325 | -6.28131 | 219 ft | 6 kts | 346° |
| 2026-05-05 04:41 | 53.42356 | -6.28098 | 220 ft | 6 kts | 65° |
| 2026-05-05 04:41 | 53.42357 | -6.27933 | 215 ft | 27 kts | 94° |
| 2026-05-05 04:41 | 53.42344 | -6.27704 | 218 ft | 29 kts | 95° |
| 2026-05-05 04:41 | 53.42325 | -6.27372 | 215 ft | 29 kts | 94° |
| 2026-05-05 04:42 | 53.42307 | -6.27036 | 224 ft | 29 kts | 96° |
| 2026-05-05 04:42 | 53.42289 | -6.26705 | 215 ft | 25 kts | 95° |
| 2026-05-05 04:42 | 53.42274 | -6.26433 | 221 ft | 23 kts | 95° |
| 2026-05-05 04:42 | 53.42259 | -6.26164 | 215 ft | 23 kts | 95° |
| 2026-05-05 04:43 | 53.42243 | -6.25894 | 217 ft | 23 kts | 96° |
| 2026-05-05 04:43 | 53.42230 | -6.25623 | 221 ft | 23 kts | 94° |
| 2026-05-05 04:43 | 53.42216 | -6.25385 | 218 ft | 11 kts | 95° |
| 2026-05-05 04:43 | 53.42213 | -6.25332 | 220 ft | 0 kts | 95° |
| 2026-05-05 04:44 | 53.42212 | -6.25316 | 221 ft | 6 kts | 95° |
| 2026-05-05 04:45 | 53.42208 | -6.25228 | 222 ft | 10 kts | 95° |
| 2026-05-05 04:45 | 53.42222 | -6.25020 | 225 ft | 21 kts | 60° |
| 2026-05-05 04:45 | 53.42313 | -6.24856 | 217 ft | 16 kts | 43° |
| 2026-05-05 04:45 | 53.42370 | -6.24756 | 224 ft | 11 kts | 46° |
| 2026-05-05 04:46 | 53.42392 | -6.24656 | 222 ft | 7 kts | 116° |
| 2026-05-05 04:46 | 53.42355 | -6.24588 | 219 ft | 8 kts | 135° |
| 2026-05-05 04:46 | 53.42335 | -6.24556 | 224 ft | 2 kts | 135° |
| 2026-05-05 04:46 | 53.42335 | -6.24555 | 224 ft | 0 kts | 135° |